.
WxDataArchive / Data Records for 2014-03-11
2014-03-10 March 2014 2014-03-12

Data Records for Tuesday, 11 March 2014

Time	Temp	Chill	HIndex	Humid	Dewpt	 Wind 	HiWind	WindDir	Rain 	Barom
-----	----	-----	------	-----	-----	------	------	-------	-----	-----
00:00	43.3	43.3	43.3	83	38.5	0	1	248	0.00	29.693 
00:05	43.2	43.2	43.2	83	38.4	0	1	248	0.00	29.693 
00:10	43.1	43.1	43.1	84	38.6	0	1	248	0.00	29.693 
00:15	43.1	43.1	43.1	84	38.6	0	1	248	0.00	29.682 
00:20	43.1	43.1	43.1	84	38.6	0	1	248	0.00	29.682 
00:25	43.1	43.1	43.1	85	38.9	0	1	248	0.00	29.682 
00:30	43.2	43.2	43.2	85	39.0	0	1	248	0.00	29.681 
00:35	43.3	43.3	43.3	85	39.1	0	1	248	0.00	29.681 
00:40	43.3	43.3	43.3	85	39.1	0	1	248	0.00	29.681 
00:45	43.3	43.3	43.3	85	39.1	0	1	248	0.00	29.679 
00:50	43.3	43.3	43.3	85	39.1	0	1	248	0.00	29.679 
00:55	43.3	43.3	43.3	85	39.1	0	1	248	0.00	29.679 
01:00	43.3	43.3	43.3	85	39.1	0	1	248	0.00	29.679 
01:05	43.3	43.3	43.3	85	39.1	0	1	248	0.00	29.679 
01:10	43.2	43.2	43.2	85	39.0	0	1	248	0.00	29.679 
01:15	43.2	43.2	43.2	85	39.0	0	0	---	0.00	29.677 
01:20	43.2	43.2	43.2	85	39.0	0	0	---	0.00	29.677 
01:25	43.1	43.1	43.1	85	38.9	0	0	---	0.00	29.677 
01:30	42.8	42.8	42.8	85	38.6	0	0	---	0.00	29.666 
01:35	42.5	42.5	42.5	85	38.3	0	0	---	0.00	29.666 
01:40	42.3	42.3	42.3	86	38.4	0	0	---	0.00	29.666 
01:45	42.2	42.2	42.2	86	38.3	0	0	---	0.00	29.673 
01:50	41.9	41.9	41.9	86	38.0	0	0	---	0.00	29.673 
01:55	41.6	41.6	41.6	86	37.7	0	0	---	0.00	29.673 
02:00	41.5	41.5	41.5	87	37.9	0	0	---	0.00	29.668 
02:05	41.5	41.5	41.5	87	37.9	0	1	248	0.00	29.668 
02:10	41.3	41.3	41.3	87	37.7	0	0	---	0.00	29.668 
02:15	41.3	41.3	41.3	88	38.0	0	1	248	0.00	29.669 
02:20	41.5	41.5	41.5	88	38.2	0	1	248	0.00	29.669 
02:25	41.5	41.5	41.5	88	38.2	0	1	248	0.00	29.669 
02:30	41.5	41.5	41.5	88	38.2	0	0	---	0.00	29.668 
02:35	41.2	41.2	41.2	88	37.9	0	0	---	0.00	29.668 
02:40	41.3	41.3	41.3	88	38.0	0	1	248	0.00	29.668 
02:45	41.2	41.2	41.2	88	37.9	0	0	---	0.00	29.670 
02:50	40.9	40.9	40.9	88	37.6	0	0	---	0.00	29.670 
02:55	40.6	40.6	40.6	88	37.3	0	0	---	0.00	29.670 
03:00	40.5	40.5	40.5	88	37.2	0	1	248	0.00	29.672 
03:05	40.8	40.8	40.8	89	37.8	0	0	---	0.00	29.672 
03:10	40.9	40.9	40.9	89	37.9	0	0	---	0.00	29.672 
03:15	40.8	40.8	40.8	89	37.8	0	0	---	0.00	29.667 
03:20	40.8	40.8	40.8	89	37.8	0	0	---	0.00	29.667 
03:25	40.9	40.9	40.9	89	37.9	0	1	248	0.00	29.667 
03:30	40.9	40.9	40.9	89	37.9	0	0	---	0.00	29.667 
03:35	40.8	40.8	40.8	89	37.8	0	0	---	0.00	29.667 
03:40	40.3	40.3	40.3	89	37.3	0	0	---	0.00	29.667 
03:45	39.9	39.9	39.9	89	36.9	0	0	---	0.00	29.663 
03:50	39.5	39.5	39.5	89	36.5	0	0	---	0.00	29.663 
03:55	39.2	39.2	39.2	89	36.2	0	0	---	0.00	29.663 
04:00	39.1	39.1	39.1	89	36.1	0	0	---	0.00	29.653 
04:05	38.8	38.8	38.8	89	35.8	0	0	---	0.00	29.653 
04:10	38.5	38.5	38.5	89	35.5	0	0	---	0.00	29.653 
04:15	38.3	38.3	38.3	89	35.3	0	0	---	0.00	29.652 
04:20	38.2	38.2	38.2	90	35.5	0	0	---	0.00	29.652 
04:25	38.0	38.0	38.0	90	35.3	0	0	---	0.00	29.652 
04:30	37.9	37.9	37.9	90	35.2	0	0	---	0.00	29.652 
04:35	37.8	37.8	37.8	90	35.1	0	0	---	0.00	29.652 
04:40	37.8	37.8	37.8	90	35.1	0	0	---	0.00	29.652 
04:45	37.9	37.9	37.9	91	35.5	0	0	---	0.00	29.653 
04:50	37.8	37.8	37.8	91	35.4	0	0	---	0.00	29.653 
04:55	37.6	37.6	37.6	91	35.2	0	0	---	0.00	29.653 
05:00	37.5	37.5	37.5	91	35.1	0	0	---	0.00	29.650 
05:05	37.5	37.5	37.5	91	35.1	0	0	---	0.00	29.650 
05:10	37.5	37.5	37.5	91	35.1	0	0	---	0.00	29.650 
05:15	37.5	37.5	37.5	91	35.1	0	0	---	0.00	29.646 
05:20	37.3	37.3	37.3	91	34.9	0	0	---	0.00	29.646 
05:25	37.2	37.2	37.2	91	34.8	0	0	---	0.00	29.646 
05:30	37.0	37.0	37.0	91	34.6	0	0	---	0.00	29.643 
05:35	36.9	36.9	36.9	92	34.8	0	0	---	0.00	29.643 
05:40	37.0	37.0	37.0	92	34.9	0	0	---	0.00	29.643 
05:45	37.5	37.5	37.5	92	35.4	0	0	---	0.00	29.654 
05:50	37.6	37.6	37.6	92	35.5	0	0	---	0.00	29.654 
05:55	37.6	37.6	37.6	92	35.5	0	0	---	0.00	29.654 
06:00	38.0	38.0	38.0	93	36.2	0	0	---	0.00	29.651 
06:05	38.6	38.6	38.6	93	36.8	0	0	---	0.00	29.651 
06:10	39.2	39.2	39.2	93	37.3	0	0	---	0.00	29.651 
06:15	39.2	39.2	39.2	93	37.3	0	0	---	0.00	29.652 
06:20	39.5	39.5	39.5	93	37.6	0	0	---	0.00	29.652 
06:25	39.5	39.5	39.5	93	37.6	0	0	---	0.00	29.652 
06:30	39.3	39.3	39.3	93	37.4	0	0	---	0.00	29.656 
06:35	39.1	39.1	39.1	93	37.2	0	0	---	0.00	29.656 
06:40	38.9	38.9	38.9	93	37.1	0	0	---	0.00	29.656 
06:45	38.9	38.9	38.9	93	37.1	0	0	---	0.00	29.655 
06:50	38.9	38.9	38.9	93	37.1	0	0	---	0.00	29.655 
06:55	38.8	38.8	38.8	93	37.0	0	0	---	0.00	29.655 
07:00	38.8	38.8	38.8	93	37.0	0	0	---	0.00	29.661 
07:05	38.8	38.8	38.8	93	37.0	0	0	---	0.00	29.661 
07:10	38.8	38.8	38.8	93	37.0	0	0	---	0.00	29.661 
07:15	38.8	38.8	38.8	93	37.0	0	0	---	0.00	29.667 
07:20	38.9	38.9	38.9	93	37.1	0	0	---	0.00	29.667 
07:25	39.2	39.2	39.2	93	37.3	0	0	---	0.00	29.667 
07:30	39.2	39.2	39.2	93	37.3	0	0	---	0.00	29.666 
07:35	39.1	39.1	39.1	93	37.2	0	0	---	0.00	29.666 
07:40	38.9	38.9	38.9	93	37.1	0	0	---	0.00	29.666 
07:45	38.9	38.9	38.9	93	37.1	0	0	---	0.00	29.667 
07:50	38.9	38.9	38.9	93	37.1	0	0	---	0.00	29.667 
07:55	38.8	38.8	38.8	93	37.0	0	0	---	0.00	29.667 
08:00	38.8	38.8	38.8	93	37.0	0	0	---	0.00	29.671 
08:05	38.8	38.8	38.8	93	37.0	0	0	---	0.00	29.671 
08:10	38.8	38.8	38.8	93	37.0	0	0	---	0.00	29.671 
08:15	38.6	38.6	38.6	93	36.8	0	0	---	0.00	29.682 
08:20	38.6	38.6	38.6	93	36.8	0	0	---	0.00	29.682 
08:25	38.5	38.5	38.5	93	36.7	0	0	---	0.00	29.682 
08:30	38.3	38.3	38.3	93	36.5	0	0	---	0.00	29.681 
08:35	38.3	38.3	38.3	93	36.5	0	0	---	0.00	29.681 
08:40	38.5	38.5	38.5	93	36.7	0	0	---	0.00	29.681 
08:45	38.6	38.6	38.6	93	36.8	0	0	---	0.00	29.673 
08:50	38.9	38.9	38.9	94	37.3	0	1	248	0.00	29.673 
08:55	39.1	39.1	39.1	94	37.5	0	0	---	0.00	29.673 
09:00	39.3	39.3	39.3	94	37.7	0	0	---	0.00	29.677 
09:05	39.5	39.5	39.5	94	37.9	0	0	---	0.00	29.677 
09:10	39.8	39.8	39.8	94	38.2	0	0	---	0.00	29.677 
09:15	40.2	40.2	40.2	94	38.6	0	0	---	0.00	29.685 
09:20	40.6	40.6	40.6	94	39.0	0	1	248	0.00	29.685 
09:25	41.1	41.1	41.1	94	39.5	0	1	248	0.00	29.685 
09:30	41.2	41.2	41.2	94	39.6	0	1	248	0.00	29.688 
09:35	41.5	41.5	41.5	94	39.9	0	0	---	0.00	29.688 
09:40	41.6	41.6	41.6	93	39.7	0	0	---	0.00	29.688 
09:45	41.9	41.9	41.9	93	40.0	0	0	---	0.00	29.691 
09:50	42.2	42.2	42.2	93	40.3	0	0	---	0.00	29.691 
09:55	42.5	42.5	42.5	93	40.6	0	0	---	0.00	29.691 
10:00	42.6	42.6	42.6	92	40.4	0	0	---	0.00	29.689 
10:05	42.9	42.9	42.9	92	40.7	0	0	---	0.00	29.689 
10:10	43.2	43.2	43.2	91	40.8	0	0	---	0.00	29.689 
10:15	43.3	43.3	43.3	90	40.6	0	0	---	0.00	29.687 
10:20	43.5	43.5	43.5	89	40.5	0	1	248	0.00	29.687 
10:25	43.6	43.6	43.6	88	40.3	0	0	---	0.00	29.687 
10:30	43.8	43.8	43.8	87	40.2	0	0	---	0.00	29.686 
10:35	43.9	43.9	43.9	86	40.0	0	0	---	0.00	29.686 
10:40	44.2	44.2	44.2	86	40.3	0	0	---	0.00	29.686 
10:45	44.5	44.5	44.5	86	40.6	0	0	---	0.00	29.693 
10:50	45.2	45.2	45.2	85	41.0	0	1	248	0.00	29.693 
10:55	46.2	46.2	46.2	84	41.6	0	0	---	0.00	29.693 
11:00	46.5	46.5	46.5	81	41.0	0	1	248	0.00	29.686 
11:05	46.8	46.8	46.8	80	41.0	0	1	248	0.00	29.686 
11:10	47.3	47.3	47.3	79	41.1	0	1	248	0.00	29.686 
11:15	47.6	47.6	47.6	78	41.1	0	1	248	0.00	29.683 
11:20	47.6	47.6	47.6	77	40.8	0	2	248	0.00	29.683 
11:25	47.9	47.9	47.9	76	40.7	0	1	248	0.00	29.683 
11:30	48.0	48.0	48.0	76	40.8	0	1	248	0.00	29.674 
11:35	48.3	48.3	48.3	75	40.7	0	2	248	0.00	29.674 
11:40	48.6	48.6	48.6	74	40.7	0	2	248	0.00	29.674 
11:45	48.8	48.8	48.8	73	40.5	0	2	248	0.00	29.671 
11:50	49.1	49.1	49.1	73	40.8	0	1	248	0.00	29.671 
11:55	49.2	49.2	49.2	72	40.6	0	1	248	0.00	29.671 
12:00	49.5	49.5	49.5	71	40.5	0	1	248	0.00	29.669 
12:05	49.6	49.6	49.6	71	40.6	0	1	248	0.00	29.669 
12:10	49.9	49.9	49.9	70	40.5	0	0	---	0.00	29.669 
12:15	50.2	50.2	50.2	69	40.4	0	0	---	0.00	29.671 
12:20	50.5	50.5	50.5	69	40.7	0	1	248	0.00	29.671 
12:25	50.8	50.8	50.8	67	40.2	0	1	248	0.00	29.671 
12:30	51.0	51.0	51.0	67	40.4	0	2	248	0.00	29.668 
12:35	51.0	51.0	51.0	66	40.0	0	1	248	0.00	29.668 
12:40	51.3	51.3	51.3	66	40.3	0	1	248	0.00	29.668 
12:45	51.4	51.4	51.4	65	40.0	0	1	248	0.00	29.665 
12:50	51.7	51.7	51.7	65	40.3	0	1	248	0.00	29.665 
12:55	52.0	52.0	52.0	64	40.2	0	1	248	0.00	29.665 
13:00	52.3	52.3	52.3	63	40.1	0	2	248	0.00	29.679 
13:05	52.3	52.3	52.3	62	39.7	0	3	248	0.00	29.679 
13:10	52.6	52.6	52.6	61	39.5	0	1	248	0.00	29.679 
13:15	52.9	52.9	52.9	61	39.8	0	1	248	0.00	29.680 
13:20	53.3	53.3	53.3	61	40.2	0	3	248	0.00	29.680 
13:25	53.9	53.9	53.9	60	40.3	0	1	248	0.00	29.680 
13:30	54.4	54.4	54.4	58	39.9	0	1	248	0.00	29.678 
13:35	54.5	54.5	54.5	58	40.0	0	2	248	0.00	29.678 
13:40	54.7	54.7	54.7	56	39.3	0	1	248	0.00	29.678 
13:45	54.7	54.7	54.7	56	39.3	0	1	248	0.00	29.673 
13:50	54.8	54.8	54.8	58	40.3	0	1	248	0.00	29.673 
13:55	55.1	55.1	55.1	56	39.7	0	1	248	0.00	29.673 
14:00	55.1	55.1	55.1	56	39.7	0	1	248	0.00	29.668 
14:05	55.3	55.3	55.3	57	40.3	0	1	248	0.00	29.668 
14:10	55.4	55.4	55.4	56	40.0	0	1	248	0.00	29.668 
14:15	55.3	55.3	55.3	55	39.4	0	1	248	0.00	29.662 
14:20	55.1	55.1	55.1	55	39.2	0	1	248	0.00	29.662 
14:25	55.0	55.0	55.0	55	39.1	0	1	248	0.00	29.662 
14:30	55.1	55.1	55.1	55	39.2	0	2	248	0.00	29.649 
14:35	55.3	55.3	55.3	56	39.9	0	2	248	0.00	29.649 
14:40	55.4	55.4	55.4	55	39.5	0	2	248	0.00	29.649 
14:45	55.3	55.3	55.3	55	39.4	0	1	248	0.00	29.629 
14:50	55.3	55.3	55.3	57	40.3	0	2	248	0.00	29.629 
14:55	55.0	55.0	55.0	59	40.9	2	5	248	0.00	29.629 
15:00	54.2	54.2	54.2	60	40.6	2	4	90	0.00	29.621 
15:05	53.9	53.9	53.9	62	41.2	1	3	90	0.00	29.621 
15:10	53.9	53.9	53.9	61	40.8	1	3	90	0.00	29.621 
15:15	53.9	53.9	53.9	62	41.2	2	5	90	0.00	29.619 
15:20	53.9	53.9	53.9	62	41.2	1	3	90	0.00	29.619 
15:25	54.1	54.1	54.1	62	41.4	0	2	90	0.00	29.619 
15:30	53.9	53.9	53.9	62	41.2	1	4	90	0.00	29.603 
15:35	53.5	53.5	53.5	63	41.2	2	5	90	0.00	29.603 
15:40	53.1	53.1	53.1	65	41.6	1	4	90	0.00	29.603 
15:45	52.8	52.8	52.8	67	42.1	1	3	90	0.00	29.612 
15:50	52.5	52.5	52.5	67	41.9	1	3	90	0.00	29.612 
15:55	52.3	52.3	52.3	68	42.1	0	2	90	0.00	29.612 
16:00	52.0	52.0	52.0	69	42.1	1	2	90	0.00	29.630 
16:05	52.0	52.0	52.0	69	42.1	1	3	90	0.00	29.630 
16:10	51.9	51.9	51.9	70	42.4	0	4	90	0.00	29.630 
16:15	51.9	51.9	51.9	70	42.4	1	3	90	0.00	29.635 
16:20	51.7	51.7	51.7	70	42.2	1	3	90	0.00	29.635 
16:25	51.7	51.7	51.7	70	42.2	1	2	90	0.00	29.635 
16:30	51.6	51.6	51.6	71	42.5	1	3	90	0.00	29.641 
16:35	51.4	51.4	51.4	71	42.3	1	2	90	0.00	29.641 
16:40	51.3	51.3	51.3	71	42.2	1	2	90	0.00	29.641 
16:45	51.3	51.3	51.3	71	42.2	2	3	90	0.00	29.637 
16:50	51.1	51.1	51.1	71	42.0	1	3	90	0.00	29.637 
16:55	50.8	50.8	50.8	71	41.7	0	1	90	0.00	29.637 
17:00	50.5	50.5	50.5	71	41.5	0	0	---	0.00	29.639 
17:05	50.2	50.2	50.2	72	41.5	0	2	90	0.00	29.639 
17:10	50.1	50.1	50.1	72	41.4	0	0	---	0.00	29.639 
17:15	49.8	49.8	49.8	73	41.5	0	0	---	0.00	29.626 
17:20	49.6	49.6	49.6	73	41.3	0	2	90	0.00	29.626 
17:25	49.5	49.5	49.5	73	41.2	0	0	---	0.00	29.626 
17:30	49.6	49.6	49.6	73	41.3	0	0	---	0.00	29.639 
17:35	49.8	49.8	49.8	73	41.5	0	1	90	0.00	29.639 
17:40	49.9	49.9	49.9	73	41.6	0	0	---	0.00	29.639 
17:45	49.8	49.8	49.8	72	41.1	0	0	---	0.00	29.638 
17:50	49.8	49.8	49.8	72	41.1	0	0	---	0.00	29.638 
17:55	49.8	49.8	49.8	72	41.1	0	1	90	0.00	29.638 
18:00	49.8	49.8	49.8	72	41.1	0	1	90	0.00	29.639 
18:05	49.8	49.8	49.8	72	41.1	0	1	90	0.00	29.639 
18:10	49.8	49.8	49.8	72	41.1	0	1	90	0.00	29.639 
18:15	49.6	49.6	49.6	72	40.9	0	0	---	0.00	29.637 
18:20	49.5	49.5	49.5	72	40.9	0	0	---	0.00	29.637 
18:25	49.4	49.4	49.4	72	40.8	0	0	---	0.00	29.637 
18:30	49.2	49.2	49.2	72	40.6	0	0	---	0.00	29.637 
18:35	48.9	48.9	48.9	72	40.3	0	2	90	0.00	29.637 
18:40	48.8	48.8	48.8	72	40.2	0	0	---	0.00	29.637 
18:45	48.5	48.5	48.5	73	40.2	0	0	---	0.00	29.643 
18:50	48.2	48.2	48.2	73	40.0	0	1	90	0.00	29.643 
18:55	47.9	47.9	47.9	74	40.0	0	0	---	0.00	29.643 
19:00	47.6	47.6	47.6	74	39.7	0	0	---	0.00	29.657 
19:05	47.3	47.3	47.3	74	39.4	0	0	---	0.00	29.657 
19:10	47.1	47.1	47.1	75	39.6	0	0	---	0.00	29.657 
19:15	47.0	47.0	47.0	75	39.5	0	0	---	0.00	29.668 
19:20	46.7	46.7	46.7	75	39.2	0	0	---	0.00	29.668 
19:25	46.5	46.5	46.5	75	39.0	0	0	---	0.00	29.668 
19:30	46.4	46.4	46.4	74	38.6	0	0	---	0.00	29.670 
19:35	46.1	46.1	46.1	71	37.2	0	1	90	0.00	29.670 
19:40	46.0	46.0	46.0	68	36.0	0	1	90	0.00	29.670 
19:45	45.8	45.8	45.8	65	34.7	1	3	90	0.00	29.658 
19:50	45.8	45.8	45.8	62	33.5	1	4	90	0.00	29.658 
19:55	45.8	45.8	45.8	61	33.1	0	3	90	0.00	29.658 
20:00	45.8	45.8	45.8	60	32.7	1	6	135	0.00	29.673 
20:05	45.7	45.7	45.7	59	32.2	1	4	90	0.00	29.673 
20:10	45.5	45.5	45.5	59	32.0	0	3	22	0.00	29.673 
20:15	45.2	45.2	45.2	59	31.7	0	2	22	0.00	29.687 
20:20	44.9	44.9	44.9	60	31.9	0	4	112	0.00	29.687 
20:25	44.6	44.6	44.6	60	31.6	0	3	158	0.00	29.687 
20:30	44.3	44.3	44.3	61	31.7	0	3	90	0.00	29.684 
20:35	44.2	44.2	44.2	61	31.6	0	1	90	0.00	29.684 
20:40	44.1	44.1	44.1	61	31.5	1	2	90	0.00	29.684 
20:45	43.9	43.9	43.9	61	31.3	0	3	90	0.00	29.675 
20:50	43.9	43.9	43.9	61	31.3	1	4	90	0.00	29.675 
20:55	43.9	43.9	43.9	61	31.3	1	4	112	0.00	29.675 
21:00	43.9	43.9	43.9	61	31.3	0	2	112	0.00	29.677 
21:05	43.8	43.8	43.8	62	31.6	1	4	68	0.00	29.677 
21:10	43.5	43.5	43.5	62	31.4	0	3	338	0.00	29.677 
21:15	43.3	43.3	43.3	62	31.2	1	3	338	0.00	29.681 
21:20	43.2	43.2	43.2	63	31.5	0	2	338	0.00	29.681 
21:25	43.2	43.2	43.2	63	31.5	1	4	112	0.00	29.681 
21:30	43.2	43.2	43.2	63	31.5	1	5	135	0.00	29.673 
21:35	43.2	43.2	43.2	63	31.5	1	3	90	0.00	29.673 
21:40	43.1	43.1	43.1	63	31.4	1	4	90	0.00	29.673 
21:45	43.1	43.1	43.1	63	31.4	1	4	112	0.00	29.658 
21:50	42.9	42.9	42.9	64	31.6	1	6	112	0.00	29.658 
21:55	42.8	42.8	42.8	64	31.5	0	3	112	0.00	29.658 
22:00	42.6	42.6	42.6	65	31.7	0	2	112	0.00	29.660 
22:05	42.5	42.5	42.5	65	31.6	0	3	112	0.00	29.660 
22:10	42.3	42.3	42.3	65	31.4	1	4	90	0.00	29.660 
22:15	42.3	42.3	42.3	65	31.4	1	3	90	0.00	29.665 
22:20	42.2	42.2	42.2	66	31.7	1	3	90	0.00	29.665 
22:25	41.9	41.9	41.9	66	31.4	1	4	90	0.00	29.665 
22:30	41.9	41.9	41.9	66	31.4	1	4	112	0.00	29.655 
22:35	41.8	41.8	41.8	67	31.7	1	3	112	0.00	29.655 
22:40	41.6	41.6	41.6	67	31.5	0	2	0	0.00	29.655 
22:45	41.6	41.6	41.6	67	31.5	0	2	0	0.00	29.653 
22:50	41.5	41.5	41.5	68	31.7	0	2	0	0.00	29.653 
22:55	41.3	41.3	41.3	68	31.5	0	1	338	0.00	29.653 
23:00	41.2	41.2	41.2	69	31.8	0	2	45	0.00	29.662 
23:05	41.1	41.1	41.1	69	31.7	0	2	22	0.00	29.662 
23:10	41.1	41.1	41.1	70	32.1	1	4	135	0.00	29.662 
23:15	40.9	40.9	40.9	70	31.9	0	2	135	0.00	29.665 
23:20	40.9	40.9	40.9	71	32.2	1	4	112	0.00	29.665 
23:25	40.8	40.8	40.8	71	32.1	0	3	112	0.00	29.665 
23:30	40.6	40.6	40.6	72	32.3	0	2	112	0.00	29.657 
23:35	40.5	40.5	40.5	72	32.2	0	2	112	0.00	29.657 
23:40	40.5	40.5	40.5	73	32.5	1	5	112	0.00	29.657 
23:45	40.3	40.3	40.3	74	32.7	1	4	112	0.00	29.648 
23:50	40.3	40.3	40.3	75	33.0	1	4	90	0.00	29.648 
23:55	40.3	40.3	40.3	76	33.3	2	7	90	0.00	29.648 

CoCoRaHS
IN-AL-39
A2 Web Hosting
Creative Commons License
GoDaddy
search engine by freefind advanced

loaded 2018-11-12 14:59:12 • last modified 2010-11-18 10:43:29
Privacy PolicyDisclaimer
• wx.awcolley.com is powered by PmWiki v.2002016 •
• all content (unless otherwise noted) © 2018 A W Colley